sensor_id;sensor_type;location;lat;lon;timestamp;pressure;altitude;pressure_sealevel;temperature;humidity
36598;BME280;22607;49.550;11.940;2023-12-14T00:02:17;95628.13;;;6.18;100.00
36598;BME280;22607;49.550;11.940;2023-12-14T00:04:46;95632.78;;;5.99;100.00
36598;BME280;22607;49.550;11.940;2023-12-14T00:07:12;95633.41;;;6.10;100.00
36598;BME280;22607;49.550;11.940;2023-12-14T00:09:41;95644.13;;;6.15;100.00
36598;BME280;22607;49.550;11.940;2023-12-14T00:12:08;95632.31;;;6.04;100.00
36598;BME280;22607;49.550;11.940;2023-12-14T00:14:34;95636.03;;;6.10;100.00
36598;BME280;22607;49.550;11.940;2023-12-14T00:17:01;95650.25;;;6.22;100.00
36598;BME280;22607;49.550;11.940;2023-12-14T00:19:27;95647.59;;;6.07;100.00
36598;BME280;22607;49.550;11.940;2023-12-14T00:21:54;95646.09;;;6.13;100.00
36598;BME280;22607;49.550;11.940;2023-12-14T00:24:21;95643.13;;;6.16;100.00
36598;BME280;22607;49.550;11.940;2023-12-14T00:26:47;95649.25;;;6.23;100.00
36598;BME280;22607;49.550;11.940;2023-12-14T00:29:14;95650.31;;;6.14;100.00
36598;BME280;22607;49.550;11.940;2023-12-14T00:31:40;95660.44;;;6.09;100.00
36598;BME280;22607;49.550;11.940;2023-12-14T00:34:07;95662.22;;;6.16;100.00
36598;BME280;22607;49.550;11.940;2023-12-14T00:36:34;95666.38;;;6.26;100.00
36598;BME280;22607;49.550;11.940;2023-12-14T00:39:00;95671.50;;;6.34;100.00
36598;BME280;22607;49.550;11.940;2023-12-14T00:41:27;95669.28;;;6.31;100.00
36598;BME280;22607;49.550;11.940;2023-12-14T00:43:53;95663.88;;;6.33;100.00
36598;BME280;22607;49.550;11.940;2023-12-14T00:46:20;95677.56;;;6.35;100.00
36598;BME280;22607;49.550;11.940;2023-12-14T00:48:47;95678.53;;;6.34;100.00
36598;BME280;22607;49.550;11.940;2023-12-14T00:51:13;95688.00;;;6.35;100.00
36598;BME280;22607;49.550;11.940;2023-12-14T00:53:40;95685.38;;;6.35;100.00
36598;BME280;22607;49.550;11.940;2023-12-14T00:56:08;95688.59;;;6.37;100.00
36598;BME280;22607;49.550;11.940;2023-12-14T00:58:35;95694.78;;;6.44;100.00
36598;BME280;22607;49.550;11.940;2023-12-14T01:01:02;95695.59;;;6.45;100.00
36598;BME280;22607;49.550;11.940;2023-12-14T01:03:29;95707.75;;;6.52;100.00
36598;BME280;22607;49.550;11.940;2023-12-14T01:05:56;95708.19;;;6.33;100.00
36598;BME280;22607;49.550;11.940;2023-12-14T01:08:22;95708.81;;;6.43;100.00
36598;BME280;22607;49.550;11.940;2023-12-14T01:10:49;95714.81;;;6.43;100.00
36598;BME280;22607;49.550;11.940;2023-12-14T01:13:16;95706.03;;;6.45;100.00
36598;BME280;22607;49.550;11.940;2023-12-14T01:15:43;95717.94;;;6.39;100.00
36598;BME280;22607;49.550;11.940;2023-12-14T01:18:09;95720.63;;;6.54;100.00
36598;BME280;22607;49.550;11.940;2023-12-14T01:20:36;95724.09;;;6.46;100.00
36598;BME280;22607;49.550;11.940;2023-12-14T01:23:02;95730.28;;;6.45;100.00
36598;BME280;22607;49.550;11.940;2023-12-14T01:25:29;95736.16;;;6.47;100.00
36598;BME280;22607;49.550;11.940;2023-12-14T01:27:56;95730.13;;;6.47;100.00
36598;BME280;22607;49.550;11.940;2023-12-14T01:30:24;95732.50;;;6.56;100.00
36598;BME280;22607;49.550;11.940;2023-12-14T01:32:50;95738.41;;;6.50;100.00
36598;BME280;22607;49.550;11.940;2023-12-14T01:35:17;95748.34;;;6.55;100.00
36598;BME280;22607;49.550;11.940;2023-12-14T01:37:43;95749.13;;;6.55;100.00
36598;BME280;22607;49.550;11.940;2023-12-14T01:40:11;95746.34;;;6.57;100.00
36598;BME280;22607;49.550;11.940;2023-12-14T01:42:37;95744.75;;;6.56;100.00
36598;BME280;22607;49.550;11.940;2023-12-14T01:45:05;95753.69;;;6.62;100.00
36598;BME280;22607;49.550;11.940;2023-12-14T01:47:32;95749.63;;;6.59;100.00
36598;BME280;22607;49.550;11.940;2023-12-14T01:49:58;95752.56;;;6.56;100.00
36598;BME280;22607;49.550;11.940;2023-12-14T01:52:25;95757.25;;;6.61;100.00
36598;BME280;22607;49.550;11.940;2023-12-14T01:54:52;95757.72;;;6.64;100.00
36598;BME280;22607;49.550;11.940;2023-12-14T01:57:18;95765.38;;;6.66;100.00
36598;BME280;22607;49.550;11.940;2023-12-14T01:59:45;95767.34;;;6.64;100.00
36598;BME280;22607;49.550;11.940;2023-12-14T02:02:11;95774.06;;;6.58;100.00
36598;BME280;22607;49.550;11.940;2023-12-14T02:04:38;95772.91;;;6.61;100.00
36598;BME280;22607;49.550;11.940;2023-12-14T02:07:05;95784.69;;;6.56;100.00
36598;BME280;22607;49.550;11.940;2023-12-14T02:09:31;95776.63;;;6.43;100.00
36598;BME280;22607;49.550;11.940;2023-12-14T02:11:58;95780.50;;;6.47;100.00
36598;BME280;22607;49.550;11.940;2023-12-14T02:14:24;95792.13;;;6.36;100.00
36598;BME280;22607;49.550;11.940;2023-12-14T02:16:51;95792.91;;;6.45;100.00
36598;BME280;22607;49.550;11.940;2023-12-14T02:19:18;95788.66;;;6.44;100.00
36598;BME280;22607;49.550;11.940;2023-12-14T02:21:44;95796.03;;;6.40;100.00
36598;BME280;22607;49.550;11.940;2023-12-14T02:24:11;95796.66;;;6.42;100.00
36598;BME280;22607;49.550;11.940;2023-12-14T02:26:37;95801.72;;;6.44;100.00
36598;BME280;22607;49.550;11.940;2023-12-14T02:29:04;95802.81;;;6.50;100.00
36598;BME280;22607;49.550;11.940;2023-12-14T02:31:31;95809.41;;;6.37;100.00
36598;BME280;22607;49.550;11.940;2023-12-14T02:33:57;95814.81;;;6.27;100.00
36598;BME280;22607;49.550;11.940;2023-12-14T02:36:24;95818.88;;;6.30;100.00
36598;BME280;22607;49.550;11.940;2023-12-14T02:38:50;95825.06;;;6.37;100.00
36598;BME280;22607;49.550;11.940;2023-12-14T02:41:17;95821.91;;;6.42;100.00
36598;BME280;22607;49.550;11.940;2023-12-14T02:43:44;95822.41;;;6.46;100.00
36598;BME280;22607;49.550;11.940;2023-12-14T02:46:10;95833.03;;;6.36;100.00
36598;BME280;22607;49.550;11.940;2023-12-14T02:48:41;95817.13;;;6.22;100.00
36598;BME280;22607;49.550;11.940;2023-12-14T02:51:15;95824.16;;;6.22;100.00
36598;BME280;22607;49.550;11.940;2023-12-14T02:53:42;95836.19;;;6.23;100.00
36598;BME280;22607;49.550;11.940;2023-12-14T02:56:10;95836.94;;;6.40;100.00
36598;BME280;22607;49.550;11.940;2023-12-14T02:58:37;95840.91;;;6.27;100.00
36598;BME280;22607;49.550;11.940;2023-12-14T03:01:04;95832.13;;;6.28;100.00
36598;BME280;22607;49.550;11.940;2023-12-14T03:03:31;95852.63;;;6.32;100.00
36598;BME280;22607;49.550;11.940;2023-12-14T03:05:57;95850.66;;;6.34;100.00
36598;BME280;22607;49.550;11.940;2023-12-14T03:08:24;95861.09;;;6.34;100.00
36598;BME280;22607;49.550;11.940;2023-12-14T03:10:51;95860.88;;;6.43;100.00
36598;BME280;22607;49.550;11.940;2023-12-14T03:13:18;95863.66;;;6.42;100.00
36598;BME280;22607;49.550;11.940;2023-12-14T03:15:45;95862.38;;;6.38;100.00
36598;BME280;22607;49.550;11.940;2023-12-14T03:18:12;95867.25;;;6.41;100.00
36598;BME280;22607;49.550;11.940;2023-12-14T03:20:40;95867.22;;;6.49;100.00
36598;BME280;22607;49.550;11.940;2023-12-14T03:23:07;95873.44;;;6.48;100.00
36598;BME280;22607;49.550;11.940;2023-12-14T03:25:34;95876.66;;;6.50;100.00
36598;BME280;22607;49.550;11.940;2023-12-14T03:28:01;95883.50;;;6.51;100.00
36598;BME280;22607;49.550;11.940;2023-12-14T03:30:28;95884.16;;;6.53;100.00
36598;BME280;22607;49.550;11.940;2023-12-14T03:32:54;95888.72;;;6.51;100.00
36598;BME280;22607;49.550;11.940;2023-12-14T03:35:21;95890.53;;;6.51;100.00
36598;BME280;22607;49.550;11.940;2023-12-14T03:37:48;95898.22;;;6.44;100.00
36598;BME280;22607;49.550;11.940;2023-12-14T03:40:16;95885.19;;;6.36;100.00
36598;BME280;22607;49.550;11.940;2023-12-14T03:42:42;95911.59;;;6.41;100.00
36598;BME280;22607;49.550;11.940;2023-12-14T03:45:09;95902.97;;;6.40;100.00
36598;BME280;22607;49.550;11.940;2023-12-14T03:47:36;95900.06;;;6.35;100.00
36598;BME280;22607;49.550;11.940;2023-12-14T03:50:03;95904.75;;;6.40;100.00
36598;BME280;22607;49.550;11.940;2023-12-14T03:52:30;95910.81;;;6.32;100.00
36598;BME280;22607;49.550;11.940;2023-12-14T03:54:58;95919.09;;;6.44;100.00
36598;BME280;22607;49.550;11.940;2023-12-14T03:57:24;95914.56;;;6.38;100.00
36598;BME280;22607;49.550;11.940;2023-12-14T03:59:52;95924.31;;;6.44;100.00
36598;BME280;22607;49.550;11.940;2023-12-14T04:02:19;95920.09;;;6.35;100.00
36598;BME280;22607;49.550;11.940;2023-12-14T04:04:45;95925.00;;;6.29;100.00
36598;BME280;22607;49.550;11.940;2023-12-14T04:07:13;95934.44;;;6.30;100.00
36598;BME280;22607;49.550;11.940;2023-12-14T04:09:40;95940.97;;;6.35;100.00
36598;BME280;22607;49.550;11.940;2023-12-14T04:12:07;95936.22;;;6.30;100.00
36598;BME280;22607;49.550;11.940;2023-12-14T04:14:33;95932.34;;;6.26;100.00
36598;BME280;22607;49.550;11.940;2023-12-14T04:17:00;95956.94;;;6.32;100.00
36598;BME280;22607;49.550;11.940;2023-12-14T04:19:26;95953.69;;;6.38;100.00
36598;BME280;22607;49.550;11.940;2023-12-14T04:21:53;95952.69;;;6.30;100.00
36598;BME280;22607;49.550;11.940;2023-12-14T04:24:20;95951.06;;;6.38;100.00
36598;BME280;22607;49.550;11.940;2023-12-14T04:26:48;95956.94;;;6.32;100.00
36598;BME280;22607;49.550;11.940;2023-12-14T04:29:14;95962.47;;;6.37;100.00
36598;BME280;22607;49.550;11.940;2023-12-14T04:31:41;95972.56;;;6.40;100.00
36598;BME280;22607;49.550;11.940;2023-12-14T04:34:08;95970.63;;;6.34;100.00
36598;BME280;22607;49.550;11.940;2023-12-14T04:36:38;95978.09;;;6.45;100.00
36598;BME280;22607;49.550;11.940;2023-12-14T04:39:05;95984.63;;;6.41;100.00
36598;BME280;22607;49.550;11.940;2023-12-14T04:41:31;95990.16;;;6.46;100.00
36598;BME280;22607;49.550;11.940;2023-12-14T04:43:58;95993.06;;;6.51;100.00
36598;BME280;22607;49.550;11.940;2023-12-14T04:46:26;95997.00;;;6.47;100.00
36598;BME280;22607;49.550;11.940;2023-12-14T04:48:52;95989.81;;;6.49;100.00
36598;BME280;22607;49.550;11.940;2023-12-14T04:51:19;95997.97;;;6.46;100.00
36598;BME280;22607;49.550;11.940;2023-12-14T04:53:45;95999.94;;;6.52;100.00
36598;BME280;22607;49.550;11.940;2023-12-14T04:56:12;96009.06;;;6.48;100.00
36598;BME280;22607;49.550;11.940;2023-12-14T04:58:39;96012.00;;;6.53;100.00
36598;BME280;22607;49.550;11.940;2023-12-14T05:01:06;95997.34;;;6.44;100.00
36598;BME280;22607;49.550;11.940;2023-12-14T05:03:34;96015.75;;;6.42;100.00
36598;BME280;22607;49.550;11.940;2023-12-14T05:06:01;96012.97;;;6.52;100.00
36598;BME280;22607;49.550;11.940;2023-12-14T05:08:28;96005.78;;;6.54;100.00
36598;BME280;22607;49.550;11.940;2023-12-14T05:10:54;96022.59;;;6.43;100.00
36598;BME280;22607;49.550;11.940;2023-12-14T05:13:23;96014.97;;;6.25;100.00
36598;BME280;22607;49.550;11.940;2023-12-14T05:15:50;96034.06;;;6.26;100.00
36598;BME280;22607;49.550;11.940;2023-12-14T05:18:18;96027.84;;;6.35;100.00
36598;BME280;22607;49.550;11.940;2023-12-14T05:20:45;96034.03;;;6.34;100.00
36598;BME280;22607;49.550;11.940;2023-12-14T05:23:12;96037.13;;;6.38;100.00
36598;BME280;22607;49.550;11.940;2023-12-14T05:25:39;96042.84;;;6.33;100.00
36598;BME280;22607;49.550;11.940;2023-12-14T05:28:05;96050.50;;;6.35;100.00
36598;BME280;22607;49.550;11.940;2023-12-14T05:30:32;96056.69;;;6.34;100.00
36598;BME280;22607;49.550;11.940;2023-12-14T05:32:59;96058.47;;;6.33;100.00
36598;BME280;22607;49.550;11.940;2023-12-14T05:35:25;96076.91;;;6.40;100.00
36598;BME280;22607;49.550;11.940;2023-12-14T05:37:52;96074.97;;;6.34;100.00
36598;BME280;22607;49.550;11.940;2023-12-14T05:40:19;96082.13;;;6.32;100.00
36598;BME280;22607;49.550;11.940;2023-12-14T05:42:45;96079.34;;;6.25;100.00
36598;BME280;22607;49.550;11.940;2023-12-14T05:45:12;96089.78;;;6.33;100.00
36598;BME280;22607;49.550;11.940;2023-12-14T05:47:39;96088.63;;;6.36;100.00
36598;BME280;22607;49.550;11.940;2023-12-14T05:50:07;96089.47;;;6.36;100.00
36598;BME280;22607;49.550;11.940;2023-12-14T05:52:36;96098.28;;;6.35;100.00
36598;BME280;22607;49.550;11.940;2023-12-14T05:55:04;96088.31;;;6.30;100.00
36598;BME280;22607;49.550;11.940;2023-12-14T05:57:31;96102.97;;;6.32;100.00
36598;BME280;22607;49.550;11.940;2023-12-14T05:59:58;96101.34;;;6.30;100.00
36598;BME280;22607;49.550;11.940;2023-12-14T06:02:25;96105.44;;;6.33;100.00
36598;BME280;22607;49.550;11.940;2023-12-14T06:04:51;96104.59;;;6.33;100.00
36598;BME280;22607;49.550;11.940;2023-12-14T06:07:18;96117.66;;;6.33;100.00
36598;BME280;22607;49.550;11.940;2023-12-14T06:09:45;96124.50;;;6.34;100.00
36598;BME280;22607;49.550;11.940;2023-12-14T06:12:11;96133.66;;;6.38;100.00
36598;BME280;22607;49.550;11.940;2023-12-14T06:14:38;96132.00;;;6.37;100.00
36598;BME280;22607;49.550;11.940;2023-12-14T06:17:04;96143.56;;;6.34;100.00
36598;BME280;22607;49.550;11.940;2023-12-14T06:19:31;96135.09;;;6.32;100.00
36598;BME280;22607;49.550;11.940;2023-12-14T06:21:58;96131.03;;;6.29;100.00
36598;BME280;22607;49.550;11.940;2023-12-14T06:24:25;96139.84;;;6.28;100.00
36598;BME280;22607;49.550;11.940;2023-12-14T06:26:52;96138.38;;;6.26;100.00
36598;BME280;22607;49.550;11.940;2023-12-14T06:29:18;96144.69;;;6.23;100.00
36598;BME280;22607;49.550;11.940;2023-12-14T06:31:45;96146.69;;;6.29;100.00
36598;BME280;22607;49.550;11.940;2023-12-14T06:34:12;96145.69;;;6.30;100.00
36598;BME280;22607;49.550;11.940;2023-12-14T06:36:44;96135.56;;;6.27;100.00
36598;BME280;22607;49.550;11.940;2023-12-14T06:39:11;96153.66;;;6.29;100.00
36598;BME280;22607;49.550;11.940;2023-12-14T06:41:38;96156.44;;;6.19;100.00
36598;BME280;22607;49.550;11.940;2023-12-14T06:44:06;96155.13;;;6.15;100.00
36598;BME280;22607;49.550;11.940;2023-12-14T06:46:35;96160.97;;;6.09;100.00
36598;BME280;22607;49.550;11.940;2023-12-14T06:49:03;96155.38;;;5.95;100.00
36598;BME280;22607;49.550;11.940;2023-12-14T06:51:30;96170.44;;;6.10;100.00
36598;BME280;22607;49.550;11.940;2023-12-14T06:53:57;96177.38;;;6.01;100.00
36598;BME280;22607;49.550;11.940;2023-12-14T06:56:24;96181.81;;;6.00;100.00
36598;BME280;22607;49.550;11.940;2023-12-14T06:58:50;96199.59;;;6.05;100.00
36598;BME280;22607;49.550;11.940;2023-12-14T07:01:17;96194.00;;;6.00;100.00
36598;BME280;22607;49.550;11.940;2023-12-14T07:03:47;96203.59;;;5.91;100.00
36598;BME280;22607;49.550;11.940;2023-12-14T07:06:15;96216.31;;;5.94;100.00
36598;BME280;22607;49.550;11.940;2023-12-14T07:08:43;96212.72;;;5.95;100.00
36598;BME280;22607;49.550;11.940;2023-12-14T07:11:11;96209.16;;;5.96;100.00
36598;BME280;22607;49.550;11.940;2023-12-14T07:13:38;96214.41;;;6.04;100.00
36598;BME280;22607;49.550;11.940;2023-12-14T07:16:10;96213.25;;;5.99;100.00
36598;BME280;22607;49.550;11.940;2023-12-14T07:18:37;96229.34;;;5.94;100.00
36598;BME280;22607;49.550;11.940;2023-12-14T07:21:05;96229.38;;;6.02;100.00
36598;BME280;22607;49.550;11.940;2023-12-14T07:23:32;96241.97;;;6.07;100.00
36598;BME280;22607;49.550;11.940;2023-12-14T07:25:58;96242.78;;;6.08;100.00
36598;BME280;22607;49.550;11.940;2023-12-14T07:28:29;96244.75;;;6.06;100.00
36598;BME280;22607;49.550;11.940;2023-12-14T07:30:55;96246.06;;;6.10;100.00
36598;BME280;22607;49.550;11.940;2023-12-14T07:33:22;96261.03;;;6.08;100.00
36598;BME280;22607;49.550;11.940;2023-12-14T07:35:49;96254.84;;;6.09;100.00
36598;BME280;22607;49.550;11.940;2023-12-14T07:38:16;96256.56;;;6.00;100.00
36598;BME280;22607;49.550;11.940;2023-12-14T07:40:42;96267.72;;;6.10;100.00
36598;BME280;22607;49.550;11.940;2023-12-14T07:43:09;96270.84;;;6.22;100.00
36598;BME280;22607;49.550;11.940;2023-12-14T07:45:36;96280.78;;;6.19;100.00
36598;BME280;22607;49.550;11.940;2023-12-14T07:48:02;96286.16;;;6.17;100.00
36598;BME280;22607;49.550;11.940;2023-12-14T07:50:30;96285.88;;;6.28;100.00
36598;BME280;22607;49.550;11.940;2023-12-14T07:52:57;96296.75;;;6.15;100.00
36598;BME280;22607;49.550;11.940;2023-12-14T07:55:24;96302.03;;;6.32;100.00
36598;BME280;22607;49.550;11.940;2023-12-14T07:57:50;96300.22;;;6.24;100.00
36598;BME280;22607;49.550;11.940;2023-12-14T08:00:17;96306.41;;;6.32;100.00
36598;BME280;22607;49.550;11.940;2023-12-14T08:02:44;96306.91;;;6.27;100.00
36598;BME280;22607;49.550;11.940;2023-12-14T08:05:11;96311.25;;;6.18;100.00
36598;BME280;22607;49.550;11.940;2023-12-14T08:07:38;96312.38;;;6.15;100.00
36598;BME280;22607;49.550;11.940;2023-12-14T08:10:05;96305.38;;;6.16;100.00
36598;BME280;22607;49.550;11.940;2023-12-14T08:12:31;96312.06;;;6.19;100.00
36598;BME280;22607;49.550;11.940;2023-12-14T08:14:59;96309.28;;;6.12;100.00
36598;BME280;22607;49.550;11.940;2023-12-14T08:17:26;96313.69;;;6.20;100.00
36598;BME280;22607;49.550;11.940;2023-12-14T08:19:54;96325.34;;;6.34;100.00
36598;BME280;22607;49.550;11.940;2023-12-14T08:22:22;96328.56;;;6.27;100.00
36598;BME280;22607;49.550;11.940;2023-12-14T08:24:48;96333.63;;;6.29;100.00
36598;BME280;22607;49.550;11.940;2023-12-14T08:27:15;96336.38;;;6.27;100.00
36598;BME280;22607;49.550;11.940;2023-12-14T08:29:43;96344.56;;;6.33;100.00
36598;BME280;22607;49.550;11.940;2023-12-14T08:32:11;96351.28;;;6.35;100.00
36598;BME280;22607;49.550;11.940;2023-12-14T08:34:37;96354.19;;;6.32;100.00
36598;BME280;22607;49.550;11.940;2023-12-14T08:37:06;96354.81;;;6.26;100.00
36598;BME280;22607;49.550;11.940;2023-12-14T08:39:33;96369.38;;;6.45;100.00
36598;BME280;22607;49.550;11.940;2023-12-14T08:42:03;96359.28;;;6.50;100.00
36598;BME280;22607;49.550;11.940;2023-12-14T08:44:29;96371.72;;;6.56;100.00
36598;BME280;22607;49.550;11.940;2023-12-14T08:46:56;96369.75;;;6.59;100.00
36598;BME280;22607;49.550;11.940;2023-12-14T08:49:23;96378.97;;;6.79;100.00
36598;BME280;22607;49.550;11.940;2023-12-14T08:51:50;96372.94;;;6.87;100.00
36598;BME280;22607;49.550;11.940;2023-12-14T08:54:17;96377.84;;;6.99;100.00
36598;BME280;22607;49.550;11.940;2023-12-14T08:56:44;96382.28;;;6.98;100.00
36598;BME280;22607;49.550;11.940;2023-12-14T08:59:11;96388.78;;;6.94;100.00
36598;BME280;22607;49.550;11.940;2023-12-14T09:01:38;96388.59;;;6.95;100.00
36598;BME280;22607;49.550;11.940;2023-12-14T09:04:05;96390.72;;;6.92;100.00
36598;BME280;22607;49.550;11.940;2023-12-14T09:06:32;96395.47;;;6.88;100.00
36598;BME280;22607;49.550;11.940;2023-12-14T09:08:59;96407.53;;;6.89;100.00
36598;BME280;22607;49.550;11.940;2023-12-14T09:11:26;96414.72;;;6.87;100.00
36598;BME280;22607;49.550;11.940;2023-12-14T09:13:52;96412.56;;;6.82;100.00
36598;BME280;22607;49.550;11.940;2023-12-14T09:16:19;96414.91;;;6.94;100.00
36598;BME280;22607;49.550;11.940;2023-12-14T09:18:46;96424.50;;;6.93;100.00
36598;BME280;22607;49.550;11.940;2023-12-14T09:21:13;96423.69;;;6.93;100.00
36598;BME280;22607;49.550;11.940;2023-12-14T09:23:41;96434.50;;;6.98;100.00
36598;BME280;22607;49.550;11.940;2023-12-14T09:26:08;96435.44;;;6.97;100.00
36598;BME280;22607;49.550;11.940;2023-12-14T09:28:34;96433.81;;;6.96;100.00
36598;BME280;22607;49.550;11.940;2023-12-14T09:31:01;96436.78;;;7.09;100.00
36598;BME280;22607;49.550;11.940;2023-12-14T09:33:30;96444.47;;;7.11;100.00
36598;BME280;22607;49.550;11.940;2023-12-14T09:35:57;96443.31;;;7.05;100.00
36598;BME280;22607;49.550;11.940;2023-12-14T09:38:23;96460.47;;;7.16;100.00
36598;BME280;22607;49.550;11.940;2023-12-14T09:40:50;96449.19;;;7.16;100.00
36598;BME280;22607;49.550;11.940;2023-12-14T09:43:17;96463.56;;;7.20;100.00
36598;BME280;22607;49.550;11.940;2023-12-14T09:45:43;96468.16;;;7.18;100.00
36598;BME280;22607;49.550;11.940;2023-12-14T09:48:12;96463.41;;;7.21;100.00
36598;BME280;22607;49.550;11.940;2023-12-14T09:50:39;96476.59;;;7.12;100.00
36598;BME280;22607;49.550;11.940;2023-12-14T09:53:06;96476.03;;;7.26;100.00
36598;BME280;22607;49.550;11.940;2023-12-14T09:55:34;96479.28;;;7.28;100.00
36598;BME280;22607;49.550;11.940;2023-12-14T09:58:01;96474.34;;;7.08;100.00
36598;BME280;22607;49.550;11.940;2023-12-14T10:00:34;96451.38;;;6.77;100.00
36598;BME280;22607;49.550;11.940;2023-12-14T10:03:26;96484.44;;;7.03;100.00
36598;BME280;22607;49.550;11.940;2023-12-14T10:05:56;96471.91;;;7.15;100.00
36598;BME280;22607;49.550;11.940;2023-12-14T10:08:26;96492.31;;;7.20;100.00
36598;BME280;22607;49.550;11.940;2023-12-14T10:10:54;96488.09;;;7.27;100.00
36598;BME280;22607;49.550;11.940;2023-12-14T10:13:36;96488.59;;;7.31;100.00
36598;BME280;22607;49.550;11.940;2023-12-14T10:16:03;96497.59;;;7.37;100.00
36598;BME280;22607;49.550;11.940;2023-12-14T10:18:31;96493.84;;;7.47;100.00
36598;BME280;22607;49.550;11.940;2023-12-14T10:21:00;96493.38;;;7.60;100.00
36598;BME280;22607;49.550;11.940;2023-12-14T10:23:29;96499.41;;;7.53;100.00
36598;BME280;22607;49.550;11.940;2023-12-14T10:25:57;96499.69;;;7.41;100.00
36598;BME280;22607;49.550;11.940;2023-12-14T10:28:24;96489.75;;;7.37;100.00
36598;BME280;22607;49.550;11.940;2023-12-14T10:30:51;96485.16;;;7.39;100.00
36598;BME280;22607;49.550;11.940;2023-12-14T10:33:18;96498.53;;;7.27;100.00
36598;BME280;22607;49.550;11.940;2023-12-14T10:35:45;96507.72;;;7.48;100.00
36598;BME280;22607;49.550;11.940;2023-12-14T10:38:15;96506.44;;;7.52;100.00
36598;BME280;22607;49.550;11.940;2023-12-14T10:40:41;96508.69;;;7.47;100.00
36598;BME280;22607;49.550;11.940;2023-12-14T10:43:11;96510.97;;;7.42;100.00
36598;BME280;22607;49.550;11.940;2023-12-14T10:45:43;96510.34;;;7.48;100.00
36598;BME280;22607;49.550;11.940;2023-12-14T10:48:10;96515.25;;;7.51;100.00
36598;BME280;22607;49.550;11.940;2023-12-14T10:50:42;96513.78;;;7.57;100.00
36598;BME280;22607;49.550;11.940;2023-12-14T10:53:09;96512.31;;;7.62;100.00
36598;BME280;22607;49.550;11.940;2023-12-14T10:55:43;96517.69;;;7.61;100.00
36598;BME280;22607;49.550;11.940;2023-12-14T10:58:11;96514.94;;;7.54;100.00
36598;BME280;22607;49.550;11.940;2023-12-14T11:00:38;96514.94;;;7.54;100.00
36598;BME280;22607;49.550;11.940;2023-12-14T11:03:05;96523.91;;;7.60;100.00
36598;BME280;22607;49.550;11.940;2023-12-14T11:05:34;96508.72;;;7.55;100.00
36598;BME280;22607;49.550;11.940;2023-12-14T11:08:05;96526.50;;;7.43;100.00
36598;BME280;22607;49.550;11.940;2023-12-14T11:10:41;96529.44;;;7.40;100.00
36598;BME280;22607;49.550;11.940;2023-12-14T11:13:10;96533.22;;;7.46;100.00
36598;BME280;22607;49.550;11.940;2023-12-14T11:15:48;96539.88;;;7.40;100.00
36598;BME280;22607;49.550;11.940;2023-12-14T11:23:12;96550.69;;;7.54;100.00
36598;BME280;22607;49.550;11.940;2023-12-14T11:25:50;96560.31;;;7.53;100.00
36598;BME280;22607;49.550;11.940;2023-12-14T11:28:24;96564.69;;;7.36;100.00
36598;BME280;22607;49.550;11.940;2023-12-14T11:30:54;96563.88;;;7.35;100.00
36598;BME280;22607;49.550;11.940;2023-12-14T11:33:22;96563.56;;;7.39;100.00
36598;BME280;22607;49.550;11.940;2023-12-14T11:35:51;96555.91;;;7.54;100.00
36598;BME280;22607;49.550;11.940;2023-12-14T11:38:20;96558.03;;;7.58;100.00
36598;BME280;22607;49.550;11.940;2023-12-14T11:40:49;96568.00;;;7.55;100.00
36598;BME280;22607;49.550;11.940;2023-12-14T11:43:16;96568.00;;;7.55;100.00
36598;BME280;22607;49.550;11.940;2023-12-14T11:45:47;96573.88;;;7.48;100.00
36598;BME280;22607;49.550;11.940;2023-12-14T11:48:14;96567.66;;;7.49;100.00
36598;BME280;22607;49.550;11.940;2023-12-14T11:50:42;96586.97;;;7.57;100.00
36598;BME280;22607;49.550;11.940;2023-12-14T11:53:10;96583.69;;;7.55;100.00
36598;BME280;22607;49.550;11.940;2023-12-14T11:55:39;96578.63;;;7.61;100.00
36598;BME280;22607;49.550;11.940;2023-12-14T11:58:07;96593.31;;;7.46;100.00
36598;BME280;22607;49.550;11.940;2023-12-14T12:00:34;96589.38;;;7.42;100.00
36598;BME280;22607;49.550;11.940;2023-12-14T12:03:11;96592.63;;;7.44;100.00
36598;BME280;22607;49.550;11.940;2023-12-14T12:05:40;96593.66;;;7.51;100.00
36598;BME280;22607;49.550;11.940;2023-12-14T12:08:09;96583.16;;;7.43;100.00
36598;BME280;22607;49.550;11.940;2023-12-14T12:10:39;96589.63;;;7.30;100.00
36598;BME280;22607;49.550;11.940;2023-12-14T12:13:19;96591.59;;;7.28;100.00
36598;BME280;22607;49.550;11.940;2023-12-14T12:15:47;96584.41;;;7.30;100.00
36598;BME280;22607;49.550;11.940;2023-12-14T12:18:16;96591.69;;;7.53;100.00
36598;BME280;22607;49.550;11.940;2023-12-14T12:20:44;96584.00;;;7.52;100.00
36598;BME280;22607;49.550;11.940;2023-12-14T12:23:10;96592.38;;;7.64;100.00
36598;BME280;22607;49.550;11.940;2023-12-14T12:25:38;96586.16;;;7.56;100.00
36598;BME280;22607;49.550;11.940;2023-12-14T12:28:05;96586.44;;;7.53;100.00
36598;BME280;22607;49.550;11.940;2023-12-14T12:30:33;96590.06;;;7.60;100.00
36598;BME280;22607;49.550;11.940;2023-12-14T12:33:04;96600.34;;;7.54;100.00
36598;BME280;22607;49.550;11.940;2023-12-14T12:35:31;96597.72;;;7.54;100.00
36598;BME280;22607;49.550;11.940;2023-12-14T12:37:59;96591.84;;;7.52;100.00
36598;BME280;22607;49.550;11.940;2023-12-14T12:40:26;96596.44;;;7.58;100.00
36598;BME280;22607;49.550;11.940;2023-12-14T12:42:53;96596.59;;;7.56;100.00
36598;BME280;22607;49.550;11.940;2023-12-14T12:45:19;96599.84;;;7.50;100.00
36598;BME280;22607;49.550;11.940;2023-12-14T12:47:52;96601.78;;;7.48;100.00
36598;BME280;22607;49.550;11.940;2023-12-14T12:50:19;96607.69;;;7.58;100.00
36598;BME280;22607;49.550;11.940;2023-12-14T12:52:47;96608.22;;;7.70;100.00
36598;BME280;22607;49.550;11.940;2023-12-14T12:55:15;96606.94;;;7.66;100.00
36598;BME280;22607;49.550;11.940;2023-12-14T12:57:43;96600.56;;;7.69;100.00